Time;durP1;ratioP1;P1;durP2;ratioP2;P2;SDS_P1;SDS_P2;PMS_P1;PMS_P2;Temp;Humidity;BMP_temperature;BMP_pressure;BME280_temperature;BME280_humidity;BME280_pressure;Samples;Min_cycle;Max_cycle;Signal;HPM_P1;HPM_P2
2022/08/04 00:01:47;;;;;;;;;;;;;;;;;;6269047;22;19985;-94
2022/08/04 00:04:15;;;;;;;;;;;;;;;;;;6266961;22;19917;-92
2022/08/04 00:06:42;;;;;;;;;;;;;;;;;;6294751;22;19949;-91
2022/08/04 00:09:08;;;;;;;;;;;;;;;;;;6266245;22;19918;-91
2022/08/04 00:11:45;;;;;;;;;;;;;;;;;;6271869;22;19915;-91
2022/08/04 00:14:12;;;;;;;;;;;;;;;;;;6264204;22;19915;-92
2022/08/04 00:16:39;;;;;;;;;;;;;;;;;;6266051;22;19922;-91
2022/08/04 00:19:05;;;;;;;;;;;;;;;;;;6261457;22;19993;-92
2022/08/04 00:21:32;;;;;;;;;;;;;;;;;;6289509;22;19953;-91
2022/08/04 00:23:59;;;;;;;;;;;;;;;;;;6262652;22;20252;-91
2022/08/04 00:26:25;;;;;;;;;;;;;;;;;;6289368;22;19922;-92
2022/08/04 00:28:56;;;;;;;;;;;;;;;;;;6316082;22;19946;-92
2022/08/04 00:31:24;;;;;;;;;;;;;;;;;;6288151;22;20232;-92
2022/08/04 00:33:51;;;;;;;;;;;;;;;;;;6264581;22;19982;-92
2022/08/04 00:36:17;;;;;;;;;;;;;;;;;;6288247;22;20381;-92
2022/08/04 00:38:44;;;;;;;;;;;;;;;;;;6263250;22;19965;-91
2022/08/04 00:41:11;;;;;;;;;;;;;;;;;;6285872;22;20598;-91
2022/08/04 00:43:38;;;;;;;;;;;;;;;;;;6287680;22;19910;-92
2022/08/04 00:46:04;;;;;;;;;;;;;;;;;;6283660;22;19915;-93
2022/08/04 00:48:30;;;;;;;;;;;;;;;;;;6289870;22;19963;-92
2022/08/04 00:51:00;;;;;;;;;;;;;;;;;;6287883;22;20353;-93
2022/08/04 00:53:28;;;;;;;;;;;;;;;;;;6237236;22;19914;-93
2022/08/04 00:55:55;;;;;;;;;;;;;;;;;;6263943;22;19918;-91
2022/08/04 00:58:21;;;;;;;;;;;;;;;;;;6262167;22;19919;-92
2022/08/04 01:00:47;;;;;;;;;;;;;;;;;;6289461;22;19972;-92
2022/08/04 01:03:13;;;;;;;;;;;;;;;;;;6236803;22;19914;-92
2022/08/04 01:05:39;;;;;;;;;;;;;;;;;;6264276;22;19914;-92
2022/08/04 01:08:05;;;;;;;;;;;;;;;;;;6236878;22;19914;-92
2022/08/04 01:10:32;;;;;;;;;;;;;;;;;;6263295;22;20406;-93
2022/08/04 01:12:58;;;;;;;;;;;;;;;;;;6287013;22;19922;-91
2022/08/04 01:15:25;;;;;;;;;;;;;;;;;;6288744;22;20608;-92
2022/08/04 01:17:52;;;;;;;;;;;;;;;;;;6291240;22;19964;-92
2022/08/04 01:20:19;;;;;;;;;;;;;;;;;;6262420;22;19919;-91
2022/08/04 01:22:46;;;;;;;;;;;;;;;;;;6238791;22;19915;-92
2022/08/04 01:25:12;;;;;;;;;;;;;;;;;;6284886;22;19921;-92
2022/08/04 01:27:39;;;;;;;;;;;;;;;;;;6289118;22;19918;-92
2022/08/04 01:30:11;;;;;;;;;;;;;;;;;;6287101;22;19965;-92
2022/08/04 01:32:39;;;;;;;;;;;;;;;;;;6238382;22;19993;-92
2022/08/04 01:35:06;;;;;;;;;;;;;;;;;;6260111;22;19919;-92
2022/08/04 01:37:33;;;;;;;;;;;;;;;;;;6265808;22;20339;-92
2022/08/04 01:39:58;;;;;;;;;;;;;;;;;;6265201;22;19946;-92
2022/08/04 01:42:26;;;;;;;;;;;;;;;;;;6242192;22;20324;-92
2022/08/04 01:44:53;;;;;;;;;;;;;;;;;;6295240;22;19915;-92
2022/08/04 01:47:19;;;;;;;;;;;;;;;;;;6264540;22;19988;-91
2022/08/04 01:49:45;;;;;;;;;;;;;;;;;;6267378;22;19915;-86
2022/08/04 01:52:12;;;;;;;;;;;;;;;;;;6263752;22;20290;-85
2022/08/04 01:54:45;;;;;;;;;;;;;;;;;;6265669;22;19919;-85
2022/08/04 01:57:20;;;;;;;;;;;;;;;;;;6293106;22;19926;-86
2022/08/04 01:59:47;;;;;;;;;;;;;;;;;;6292755;22;19911;-87
2022/08/04 02:02:14;;;;;;;;;;;;;;;;;;6264784;22;20609;-86
2022/08/04 02:04:40;;;;;;;;;;;;;;;;;;6243077;22;20184;-86
2022/08/04 02:07:07;;;;;;;;;;;;;;;;;;6262842;22;19910;-86
2022/08/04 02:09:33;;;;;;;;;;;;;;;;;;6264611;22;19915;-86
2022/08/04 02:11:59;;;;;;;;;;;;;;;;;;6288582;22;19918;-86
2022/08/04 02:14:41;;;;;;;;;;;;;;;;;;6288469;22;20330;-86
2022/08/04 02:17:07;;;;;;;;;;;;;;;;;;6232413;22;19915;-85
2022/08/04 02:19:33;;;;;;;;;;;;;;;;;;6289739;22;19922;-86
2022/08/04 02:21:59;;;;;;;;;;;;;;;;;;6283798;22;19946;-86
2022/08/04 02:24:25;;;;;;;;;;;;;;;;;;6260770;22;19948;-86
2022/08/04 02:26:52;;;;;;;;;;;;;;;;;;6260986;22;20320;-86
2022/08/04 02:29:19;;;;;;;;;;;;;;;;;;6286792;22;19915;-85
2022/08/04 02:31:58;;;;;;;;;;;;;;;;;;6267317;22;19965;-86
2022/08/04 02:34:24;;;;;;;;;;;;;;;;;;6259627;22;19918;-85
2022/08/04 02:36:52;;;;;;;;;;;;;;;;;;6285349;22;20244;-86
2022/08/04 02:39:18;;;;;;;;;;;;;;;;;;6287429;22;20472;-85
2022/08/04 02:41:45;;;;;;;;;;;;;;;;;;6244012;22;19998;-86
2022/08/04 02:44:11;;;;;;;;;;;;;;;;;;6228142;22;19915;-86
2022/08/04 02:46:37;;;;;;;;;;;;;;;;;;6229955;22;19915;-86
2022/08/04 02:49:16;;;;;;;;;;;;;;;;;;6228988;22;20038;-86
2022/08/04 02:51:42;;;;;;;;;;;;;;;;;;6228612;22;20311;-85
2022/08/04 02:54:19;;;;;;;;;;;;;;;;;;6256102;22;19938;-86
2022/08/04 02:56:45;;;;;;;;;;;;;;;;;;6257619;22;20306;-85
2022/08/04 02:59:12;;;;;;;;;;;;;;;;;;6228812;22;19998;-87
2022/08/04 03:01:38;;;;;;;;;;;;;;;;;;6229615;22;20616;-86
2022/08/04 03:04:04;;;;;;;;;;;;;;;;;;6228820;22;19918;-87
2022/08/04 03:06:30;;;;;;;;;;;;;;;;;;6203681;22;20377;-85
2022/08/04 03:08:59;;;;;;;;;;;;;;;;;;6203972;22;19998;-86
2022/08/04 03:11:24;;;;;;;;;;;;;;;;;;6256021;22;19938;-86
2022/08/04 03:13:52;;;;;;;;;;;;;;;;;;6203232;22;20415;-87
2022/08/04 03:16:18;;;;;;;;;;;;;;;;;;6228321;22;19915;-86
2022/08/04 03:18:45;;;;;;;;;;;;;;;;;;6230133;22;19919;-86
2022/08/04 03:21:11;;;;;;;;;;;;;;;;;;6230345;22;19937;-86
2022/08/04 03:23:37;;;;;;;;;;;;;;;;;;6232180;22;19911;-86
2022/08/04 03:26:03;;;;;;;;;;;;;;;;;;6230292;22;20013;-86
2022/08/04 03:28:29;;;;;;;;;;;;;;;;;;6207594;22;19968;-86
2022/08/04 03:30:55;;;;;;;;;;;;;;;;;;6229839;22;19985;-86
2022/08/04 03:33:21;;;;;;;;;;;;;;;;;;6228801;22;19911;-86
2022/08/04 03:35:47;;;;;;;;;;;;;;;;;;6230863;22;19915;-86
2022/08/04 03:38:13;;;;;;;;;;;;;;;;;;6255783;22;19927;-86
2022/08/04 03:40:39;;;;;;;;;;;;;;;;;;6237413;22;19996;-86
2022/08/04 03:43:06;;;;;;;;;;;;;;;;;;6236172;22;20297;-86
2022/08/04 03:45:32;;;;;;;;;;;;;;;;;;6236683;22;20654;-86
2022/08/04 03:47:57;;;;;;;;;;;;;;;;;;6262314;22;19922;-86
2022/08/04 03:50:23;;;;;;;;;;;;;;;;;;6237539;22;20352;-86
2022/08/04 03:53:08;;;;;;;;;;;;;;;;;;6239455;22;19950;-86
2022/08/04 03:55:35;;;;;;;;;;;;;;;;;;6239200;22;19915;-86
2022/08/04 03:58:01;;;;;;;;;;;;;;;;;;6209608;22;19942;-85
2022/08/04 04:00:27;;;;;;;;;;;;;;;;;;6237796;22;19912;-86
2022/08/04 04:02:53;;;;;;;;;;;;;;;;;;6238762;22;20256;-86
2022/08/04 04:05:19;;;;;;;;;;;;;;;;;;6235007;22;19926;-85
2022/08/04 04:07:46;;;;;;;;;;;;;;;;;;6237536;22;19993;-86
2022/08/04 04:10:12;;;;;;;;;;;;;;;;;;6234907;22;20335;-85
2022/08/04 04:12:38;;;;;;;;;;;;;;;;;;6263402;22;20243;-85
2022/08/04 04:15:04;;;;;;;;;;;;;;;;;;6227848;22;19981;-86
2022/08/04 04:17:30;;;;;;;;;;;;;;;;;;6233429;22;20379;-86
2022/08/04 04:19:56;;;;;;;;;;;;;;;;;;6234400;22;20501;-86
2022/08/04 04:22:22;;;;;;;;;;;;;;;;;;6232614;22;19915;-86
2022/08/04 04:24:48;;;;;;;;;;;;;;;;;;6233574;22;19998;-86
2022/08/04 04:27:14;;;;;;;;;;;;;;;;;;6231738;22;20227;-87
2022/08/04 04:29:40;;;;;;;;;;;;;;;;;;6259026;22;20006;-86
2022/08/04 04:32:07;;;;;;;;;;;;;;;;;;6228734;22;19915;-86
2022/08/04 04:34:33;;;;;;;;;;;;;;;;;;6233133;22;19915;-86
2022/08/04 04:37:00;;;;;;;;;;;;;;;;;;6231223;22;19989;-86
2022/08/04 04:39:27;;;;;;;;;;;;;;;;;;6229139;22;19970;-86
2022/08/04 04:41:53;;;;;;;;;;;;;;;;;;6229707;22;20136;-86
2022/08/04 04:44:18;;;;;;;;;;;;;;;;;;6207136;22;20603;-86
2022/08/04 04:46:44;;;;;;;;;;;;;;;;;;6207269;22;19915;-86
2022/08/04 04:49:10;;;;;;;;;;;;;;;;;;6256967;22;19915;-87
2022/08/04 04:51:36;;;;;;;;;;;;;;;;;;6206380;22;19915;-86
2022/08/04 04:54:02;;;;;;;;;;;;;;;;;;6255783;22;19937;-86
2022/08/04 04:56:28;;;;;;;;;;;;;;;;;;6208924;22;19915;-86
2022/08/04 04:58:54;;;;;;;;;;;;;;;;;;6260163;22;19990;-86
2022/08/04 05:01:20;;;;;;;;;;;;;;;;;;6202738;22;20048;-85
2022/08/04 05:03:47;;;;;;;;;;;;;;;;;;6206192;22;19923;-86
2022/08/04 05:06:14;;;;;;;;;;;;;;;;;;6256066;22;19922;-86
2022/08/04 05:08:39;;;;;;;;;;;;;;;;;;6259066;22;20292;-86
2022/08/04 05:11:05;;;;;;;;;;;;;;;;;;6205535;22;19961;-86
2022/08/04 05:13:32;;;;;;;;;;;;;;;;;;6260023;22;20244;-85
2022/08/04 05:15:58;;;;;;;;;;;;;;;;;;6257799;22;19915;-86
2022/08/04 05:18:24;;;;;;;;;;;;;;;;;;6260195;22;20009;-86
2022/08/04 05:20:50;;;;;;;;;;;;;;;;;;6260137;22;19915;-86
2022/08/04 05:23:16;;;;;;;;;;;;;;;;;;6257773;22;19919;-86
2022/08/04 05:25:42;;;;;;;;;;;;;;;;;;6262541;22;20331;-86
2022/08/04 05:28:08;;;;;;;;;;;;;;;;;;6232779;22;19918;-87
2022/08/04 05:30:34;;;;;;;;;;;;;;;;;;6259802;22;19915;-86
2022/08/04 05:33:02;;;;;;;;;;;;;;;;;;6256410;22;19915;-86
2022/08/04 05:35:28;;;;;;;;;;;;;;;;;;6258436;22;19914;-85
2022/08/04 05:37:54;;;;;;;;;;;;;;;;;;6258025;22;19919;-86
2022/08/04 05:40:20;;;;;;;;;;;;;;;;;;6208798;22;20424;-86
2022/08/04 05:42:46;;;;;;;;;;;;;;;;;;6237205;22;19915;-87
2022/08/04 05:45:12;;;;;;;;;;;;;;;;;;6208139;22;20013;-87
2022/08/04 05:47:38;;;;;;;;;;;;;;;;;;6240034;22;19915;-86
2022/08/04 05:50:08;;;;;;;;;;;;;;;;;;6210728;22;20344;-86
2022/08/04 05:52:34;;;;;;;;;;;;;;;;;;6211287;22;19981;-86
2022/08/04 05:55:01;;;;;;;;;;;;;;;;;;6237267;22;19915;-86
2022/08/04 05:57:27;;;;;;;;;;;;;;;;;;6239807;22;19997;-84
2022/08/04 05:59:52;;;;;;;;;;;;;;;;;;6267504;22;19922;-84
2022/08/04 06:02:18;;;;;;;;;;;;;;;;;;6236902;22;19915;-84
2022/08/04 06:04:46;;;;;;;;;;;;;;;;;;6267104;22;19911;-84
2022/08/04 06:07:13;;;;;;;;;;;;;;;;;;6261211;22;19911;-85
2022/08/04 06:09:39;;;;;;;;;;;;;;;;;;6263856;22;19926;-84
2022/08/04 06:12:05;;;;;;;;;;;;;;;;;;6231877;22;20164;-85
2022/08/04 06:14:31;;;;;;;;;;;;;;;;;;6259754;22;19933;-85
2022/08/04 06:17:04;;;;;;;;;;;;;;;;;;6230673;22;19922;-85
2022/08/04 06:19:32;;;;;;;;;;;;;;;;;;6234100;22;19934;-84
2022/08/04 06:21:58;;;;;;;;;;;;;;;;;;6233244;22;19921;-85
2022/08/04 06:24:24;;;;;;;;;;;;;;;;;;6208359;22;19958;-85
2022/08/04 06:26:50;;;;;;;;;;;;;;;;;;6234345;22;20403;-85
2022/08/04 06:32:12;;;;;;;;;;;;;;;;;;6229432;22;19912;-85
2022/08/04 06:34:39;;;;;;;;;;;;;;;;;;6208664;22;19918;-85
2022/08/04 06:37:05;;;;;;;;;;;;;;;;;;6231895;22;20290;-85
2022/08/04 06:39:33;;;;;;;;;;;;;;;;;;6234275;22;19923;-85
2022/08/04 06:41:59;;;;;;;;;;;;;;;;;;6260294;22;19922;-84
2022/08/04 06:44:26;;;;;;;;;;;;;;;;;;6232951;22;19922;-85
2022/08/04 06:46:55;;;;;;;;;;;;;;;;;;6260683;22;20324;-85
2022/08/04 06:49:22;;;;;;;;;;;;;;;;;;6229948;22;19989;-86
2022/08/04 06:51:48;;;;;;;;;;;;;;;;;;6235040;22;19915;-85
2022/08/04 06:54:15;;;;;;;;;;;;;;;;;;6206745;22;19915;-85
2022/08/04 06:56:41;;;;;;;;;;;;;;;;;;6210925;22;19919;-85
2022/08/04 06:59:07;;;;;;;;;;;;;;;;;;6229445;22;20021;-86
2022/08/04 07:01:39;;;;;;;;;;;;;;;;;;6259328;22;19977;-86
2022/08/04 07:04:05;;;;;;;;;;;;;;;;;;6228942;22;20407;-85
2022/08/04 07:06:37;;;;;;;;;;;;;;;;;;6231738;22;19922;-84
2022/08/04 07:09:05;;;;;;;;;;;;;;;;;;6228971;22;19915;-86
2022/08/04 07:11:31;;;;;;;;;;;;;;;;;;6209430;22;19922;-85
2022/08/04 07:13:58;;;;;;;;;;;;;;;;;;6206320;22;19932;-85
2022/08/04 07:16:24;;;;;;;;;;;;;;;;;;6204696;22;19911;-85
2022/08/04 07:18:51;;;;;;;;;;;;;;;;;;6229646;22;19933;-85
2022/08/04 07:21:17;;;;;;;;;;;;;;;;;;6226962;22;20453;-84
2022/08/04 07:23:43;;;;;;;;;;;;;;;;;;6227590;22;19915;-84
2022/08/04 07:26:09;;;;;;;;;;;;;;;;;;6227232;22;19942;-85
2022/08/04 07:28:36;;;;;;;;;;;;;;;;;;6231574;22;19915;-85
2022/08/04 07:31:02;;;;;;;;;;;;;;;;;;6204996;22;20434;-85
2022/08/04 07:33:29;;;;;;;;;;;;;;;;;;6258997;22;19950;-86
2022/08/04 07:35:56;;;;;;;;;;;;;;;;;;6232243;22;19915;-85
2022/08/04 07:38:27;;;;;;;;;;;;;;;;;;6232966;22;20008;-85
2022/08/04 07:40:58;;;;;;;;;;;;;;;;;;6233804;22;19953;-85
2022/08/04 07:43:26;;;;;;;;;;;;;;;;;;6261087;22;19916;-85
2022/08/04 07:45:54;;;;;;;;;;;;;;;;;;6237992;22;20010;-85
2022/08/04 07:48:23;;;;;;;;;;;;;;;;;;6232596;22;19930;-85
2022/08/04 07:50:50;;;;;;;;;;;;;;;;;;6261576;22;19990;-85
2022/08/04 07:53:17;;;;;;;;;;;;;;;;;;6233254;22;19950;-86
2022/08/04 07:55:45;;;;;;;;;;;;;;;;;;6237880;22;19915;-84
2022/08/04 07:58:11;;;;;;;;;;;;;;;;;;6232786;22;19915;-84
2022/08/04 08:00:38;;;;;;;;;;;;;;;;;;6236333;22;19914;-85
2022/08/04 08:03:05;;;;;;;;;;;;;;;;;;6232299;22;19933;-84
2022/08/04 08:05:33;;;;;;;;;;;;;;;;;;6237824;22;19922;-85
2022/08/04 08:07:59;;;;;;;;;;;;;;;;;;6237325;22;19921;-83
2022/08/04 08:10:25;;;;;;;;;;;;;;;;;;6237579;22;20651;-87
2022/08/04 08:12:51;;;;;;;;;;;;;;;;;;6236917;22;19954;-87
2022/08/04 08:15:18;;;;;;;;;;;;;;;;;;6229806;22;19915;-87
2022/08/04 08:17:44;;;;;;;;;;;;;;;;;;6233552;22;20235;-87
2022/08/04 08:20:10;;;;;;;;;;;;;;;;;;6232151;22;19915;-87
2022/08/04 08:22:36;;;;;;;;;;;;;;;;;;6261864;22;20037;-86
2022/08/04 08:25:02;;;;;;;;;;;;;;;;;;6254815;22;19915;-88
2022/08/04 08:27:28;;;;;;;;;;;;;;;;;;6211636;22;19980;-88
2022/08/04 08:29:54;;;;;;;;;;;;;;;;;;6235328;22;19915;-89
2022/08/04 08:32:20;;;;;;;;;;;;;;;;;;6258505;22;19922;-87
2022/08/04 08:34:46;;;;;;;;;;;;;;;;;;6232549;22;19926;-87
2022/08/04 08:37:12;;;;;;;;;;;;;;;;;;6256700;22;19911;-88
2022/08/04 08:39:38;;;;;;;;;;;;;;;;;;6235985;22;20284;-87
2022/08/04 08:42:04;;;;;;;;;;;;;;;;;;6250165;22;19920;-87
2022/08/04 08:44:30;;;;;;;;;;;;;;;;;;6265594;22;20320;-86
2022/08/04 08:46:56;;;;;;;;;;;;;;;;;;6266841;22;19965;-86
2022/08/04 08:49:25;;;;;;;;;;;;;;;;;;6292113;22;19915;-84
2022/08/04 08:51:52;;;;;;;;;;;;;;;;;;6264046;22;19933;-83
2022/08/04 08:54:18;;;;;;;;;;;;;;;;;;6262132;22;20387;-84
2022/08/04 08:56:44;;;;;;;;;;;;;;;;;;6265633;22;19937;-85
2022/08/04 08:59:10;;;;;;;;;;;;;;;;;;6237331;22;19919;-85
2022/08/04 09:01:36;;;;;;;;;;;;;;;;;;6265280;22;20289;-85
2022/08/04 09:04:02;;;;;;;;;;;;;;;;;;6290810;22;19911;-84
2022/08/04 09:06:30;;;;;;;;;;;;;;;;;;6240124;22;19919;-84
2022/08/04 09:08:56;;;;;;;;;;;;;;;;;;6263740;22;19915;-85
2022/08/04 09:11:22;;;;;;;;;;;;;;;;;;6260384;22;20227;-85
2022/08/04 09:13:50;;;;;;;;;;;;;;;;;;6292112;22;20276;-84
2022/08/04 09:16:16;;;;;;;;;;;;;;;;;;6291490;22;19921;-84
2022/08/04 09:18:42;;;;;;;;;;;;;;;;;;6292926;22;19957;-85
2022/08/04 09:21:08;;;;;;;;;;;;;;;;;;6290489;22;19915;-85
2022/08/04 09:23:34;;;;;;;;;;;;;;;;;;6290398;22;20328;-84
2022/08/04 09:26:01;;;;;;;;;;;;;;;;;;6261003;22;19919;-85
2022/08/04 09:28:27;;;;;;;;;;;;;;;;;;6264699;22;19915;-85
2022/08/04 09:30:53;;;;;;;;;;;;;;;;;;6263637;22;20533;-85
2022/08/04 09:33:18;;;;;;;;;;;;;;;;;;6289366;22;19915;-85
2022/08/04 09:35:45;;;;;;;;;;;;;;;;;;6264853;22;19914;-85
2022/08/04 09:38:12;;;;;;;;;;;;;;;;;;6289447;22;19926;-84
2022/08/04 09:40:38;;;;;;;;;;;;;;;;;;6292447;22;19915;-84
2022/08/04 09:43:03;;;;;;;;;;;;;;;;;;6259098;22;19915;-85
2022/08/04 09:45:30;;;;;;;;;;;;;;;;;;6260666;22;20026;-85
2022/08/04 09:47:56;;;;;;;;;;;;;;;;;;6260455;22;19982;-85
2022/08/04 09:50:24;;;;;;;;;;;;;;;;;;6209100;22;19915;-83
2022/08/04 09:52:50;;;;;;;;;;;;;;;;;;6261177;22;20388;-84
2022/08/04 09:55:16;;;;;;;;;;;;;;;;;;6255891;22;20778;-84
2022/08/04 09:57:42;;;;;;;;;;;;;;;;;;6208382;22;19922;-85
2022/08/04 10:00:08;;;;;;;;;;;;;;;;;;6204192;22;19965;-84
2022/08/04 10:02:34;;;;;;;;;;;;;;;;;;6259823;22;19915;-86
2022/08/04 10:05:00;;;;;;;;;;;;;;;;;;6233986;22;20656;-85
2022/08/04 10:07:26;;;;;;;;;;;;;;;;;;6232511;22;19922;-84
2022/08/04 10:09:55;;;;;;;;;;;;;;;;;;6259742;22;19923;-84
2022/08/04 10:12:30;;;;;;;;;;;;;;;;;;6207348;22;19915;-85
2022/08/04 10:14:56;;;;;;;;;;;;;;;;;;6201888;22;19917;-84
2022/08/04 10:17:22;;;;;;;;;;;;;;;;;;6228676;22;19993;-84
2022/08/04 10:19:48;;;;;;;;;;;;;;;;;;6207417;22;19946;-84
2022/08/04 10:22:14;;;;;;;;;;;;;;;;;;6230775;22;19919;-85
2022/08/04 10:24:40;;;;;;;;;;;;;;;;;;6258497;22;19915;-85
2022/08/04 10:27:06;;;;;;;;;;;;;;;;;;6255627;22;19942;-85
2022/08/04 10:29:32;;;;;;;;;;;;;;;;;;6257962;22;19915;-84
2022/08/04 10:31:58;;;;;;;;;;;;;;;;;;6256741;22;19915;-85
2022/08/04 10:34:24;;;;;;;;;;;;;;;;;;6210154;22;20302;-85
2022/08/04 10:36:50;;;;;;;;;;;;;;;;;;6262018;22;19986;-85
2022/08/04 10:39:16;;;;;;;;;;;;;;;;;;6235436;22;19997;-84
2022/08/04 10:41:42;;;;;;;;;;;;;;;;;;6246632;22;19970;-84
2022/08/04 10:44:08;;;;;;;;;;;;;;;;;;6242395;22;19921;-84
2022/08/04 10:46:34;;;;;;;;;;;;;;;;;;6266238;22;19981;-85
2022/08/04 10:49:02;;;;;;;;;;;;;;;;;;6267618;22;20264;-85
2022/08/04 10:51:33;;;;;;;;;;;;;;;;;;6292688;22;19946;-85
2022/08/04 10:53:58;;;;;;;;;;;;;;;;;;6264514;22;19929;-84
2022/08/04 10:56:24;;;;;;;;;;;;;;;;;;6290275;22;19919;-85
2022/08/04 10:58:51;;;;;;;;;;;;;;;;;;6268168;22;20240;-84
2022/08/04 11:01:17;;;;;;;;;;;;;;;;;;6260269;22;20661;-84
2022/08/04 11:03:43;;;;;;;;;;;;;;;;;;6261930;22;20052;-85
2022/08/04 11:06:09;;;;;;;;;;;;;;;;;;6290855;22;20629;-84
2022/08/04 11:08:34;;;;;;;;;;;;;;;;;;6291966;22;19969;-85
2022/08/04 11:11:00;;;;;;;;;;;;;;;;;;6287108;22;19914;-84
2022/08/04 11:13:27;;;;;;;;;;;;;;;;;;6292950;22;19982;-84
2022/08/04 11:15:54;;;;;;;;;;;;;;;;;;6292325;22;19942;-84
2022/08/04 11:18:20;;;;;;;;;;;;;;;;;;6286779;22;19915;-85
2022/08/04 11:20:46;;;;;;;;;;;;;;;;;;6288221;22;20238;-85
2022/08/04 11:23:12;;;;;;;;;;;;;;;;;;6288678;22;20494;-85
2022/08/04 11:25:38;;;;;;;;;;;;;;;;;;6289351;22;19950;-84
2022/08/04 11:28:04;;;;;;;;;;;;;;;;;;6288582;22;19918;-84
2022/08/04 11:30:30;;;;;;;;;;;;;;;;;;6259406;22;19911;-84
2022/08/04 11:33:00;;;;;;;;;;;;;;;;;;6285822;22;19960;-85
2022/08/04 11:35:26;;;;;;;;;;;;;;;;;;6288502;22;19921;-84
2022/08/04 11:37:55;;;;;;;;;;;;;;;;;;6261693;22;19990;-85
2022/08/04 11:40:21;;;;;;;;;;;;;;;;;;6293074;22;20331;-85
2022/08/04 11:42:48;;;;;;;;;;;;;;;;;;6267844;22;19915;-84
2022/08/04 11:45:14;;;;;;;;;;;;;;;;;;6293210;22;19919;-85
2022/08/04 11:47:40;;;;;;;;;;;;;;;;;;6268271;22;19991;-84
2022/08/04 11:50:06;;;;;;;;;;;;;;;;;;6264428;22;20320;-84
2022/08/04 11:52:32;;;;;;;;;;;;;;;;;;6297364;22;19968;-84
2022/08/04 11:54:58;;;;;;;;;;;;;;;;;;6294664;22;19915;-84
2022/08/04 11:57:25;;;;;;;;;;;;;;;;;;6295068;22;20239;-84
2022/08/04 11:59:51;;;;;;;;;;;;;;;;;;6269718;22;19945;-84
2022/08/04 12:02:17;;;;;;;;;;;;;;;;;;6292479;22;20938;-84
2022/08/04 12:04:42;;;;;;;;;;;;;;;;;;6266159;22;19922;-84
2022/08/04 12:07:08;;;;;;;;;;;;;;;;;;6290296;22;19915;-84
2022/08/04 12:09:34;;;;;;;;;;;;;;;;;;6294949;22;19942;-84
2022/08/04 12:12:01;;;;;;;;;;;;;;;;;;6291845;22;19915;-85
2022/08/04 12:14:28;;;;;;;;;;;;;;;;;;6291003;22;19976;-84
2022/08/04 12:16:54;;;;;;;;;;;;;;;;;;6270271;22;19911;-84
2022/08/04 12:19:20;;;;;;;;;;;;;;;;;;6293273;22;19925;-84
2022/08/04 12:21:46;;;;;;;;;;;;;;;;;;6293387;22;20622;-84
2022/08/04 12:24:12;;;;;;;;;;;;;;;;;;6291775;22;19922;-84
2022/08/04 12:26:41;;;;;;;;;;;;;;;;;;6270171;22;19914;-84
2022/08/04 12:29:09;;;;;;;;;;;;;;;;;;6234247;22;19918;-84
2022/08/04 12:31:38;;;;;;;;;;;;;;;;;;6242341;22;19921;-84
2022/08/04 12:34:04;;;;;;;;;;;;;;;;;;6265117;22;19915;-83
2022/08/04 12:36:30;;;;;;;;;;;;;;;;;;6266040;22;20295;-84
2022/08/04 12:38:56;;;;;;;;;;;;;;;;;;6292820;22;19961;-84
2022/08/04 12:41:23;;;;;;;;;;;;;;;;;;6265029;22;19929;-84
2022/08/04 12:43:49;;;;;;;;;;;;;;;;;;6293018;22;20441;-84
2022/08/04 12:46:15;;;;;;;;;;;;;;;;;;6261615;22;19915;-84
2022/08/04 12:48:41;;;;;;;;;;;;;;;;;;6265767;22;19915;-84
2022/08/04 12:51:07;;;;;;;;;;;;;;;;;;6289343;22;19914;-83
2022/08/04 12:53:35;;;;;;;;;;;;;;;;;;6293266;22;20401;-84
2022/08/04 12:56:02;;;;;;;;;;;;;;;;;;6296498;22;19921;-84
2022/08/04 12:58:28;;;;;;;;;;;;;;;;;;6272000;22;19925;-84
2022/08/04 13:00:54;;;;;;;;;;;;;;;;;;6299604;22;19911;-84
2022/08/04 13:03:20;;;;;;;;;;;;;;;;;;6268993;22;19965;-84
2022/08/04 13:05:46;;;;;;;;;;;;;;;;;;6272069;22;20363;-83
2022/08/04 13:08:12;;;;;;;;;;;;;;;;;;6268304;22;20340;-83
2022/08/04 13:10:38;;;;;;;;;;;;;;;;;;6269401;22;19954;-83
2022/08/04 13:13:04;;;;;;;;;;;;;;;;;;6265990;22;19911;-84
2022/08/04 13:15:32;;;;;;;;;;;;;;;;;;6269882;22;20009;-83
2022/08/04 13:18:01;;;;;;;;;;;;;;;;;;6297304;22;19930;-83
2022/08/04 13:20:27;;;;;;;;;;;;;;;;;;6293745;22;20375;-83
2022/08/04 13:22:53;;;;;;;;;;;;;;;;;;6270077;22;19926;-83
2022/08/04 13:25:19;;;;;;;;;;;;;;;;;;6267574;22;19915;-83
2022/08/04 13:27:46;;;;;;;;;;;;;;;;;;6270132;22;19965;-84
2022/08/04 13:30:12;;;;;;;;;;;;;;;;;;6266289;22;20426;-84
2022/08/04 13:32:38;;;;;;;;;;;;;;;;;;6269455;22;19922;-84
2022/08/04 13:35:04;;;;;;;;;;;;;;;;;;6268127;22;19924;-84
2022/08/04 13:37:30;;;;;;;;;;;;;;;;;;6270342;22;19985;-84
2022/08/04 13:39:57;;;;;;;;;;;;;;;;;;6269716;22;19953;-84
2022/08/04 13:42:23;;;;;;;;;;;;;;;;;;6269226;22;19926;-82
2022/08/04 13:44:49;;;;;;;;;;;;;;;;;;6295054;22;19921;-84
2022/08/04 13:47:15;;;;;;;;;;;;;;;;;;6291282;22;19915;-83
2022/08/04 13:49:41;;;;;;;;;;;;;;;;;;6294309;22;19972;-83
2022/08/04 13:52:07;;;;;;;;;;;;;;;;;;6241552;22;19968;-83
2022/08/04 13:54:33;;;;;;;;;;;;;;;;;;6295540;22;19919;-84
2022/08/04 13:56:59;;;;;;;;;;;;;;;;;;6268287;22;20774;-84
2022/08/04 13:59:25;;;;;;;;;;;;;;;;;;6295918;22;20242;-84
2022/08/04 14:01:50;;;;;;;;;;;;;;;;;;6269145;22;20246;-83
2022/08/04 14:04:17;;;;;;;;;;;;;;;;;;6240960;22;20430;-83
2022/08/04 14:06:43;;;;;;;;;;;;;;;;;;6243733;22;20221;-84
2022/08/04 14:09:11;;;;;;;;;;;;;;;;;;6242205;22;20013;-84
2022/08/04 14:11:37;;;;;;;;;;;;;;;;;;6243676;22;19965;-84
2022/08/04 14:14:03;;;;;;;;;;;;;;;;;;6267490;22;20286;-84
2022/08/04 14:16:29;;;;;;;;;;;;;;;;;;6295948;22;20254;-84
2022/08/04 14:18:55;;;;;;;;;;;;;;;;;;6270228;22;19926;-84
2022/08/04 14:21:21;;;;;;;;;;;;;;;;;;6266125;22;20243;-84
2022/08/04 14:23:49;;;;;;;;;;;;;;;;;;6268706;22;19915;-84
2022/08/04 14:26:15;;;;;;;;;;;;;;;;;;6267169;22;20524;-83
2022/08/04 14:28:41;;;;;;;;;;;;;;;;;;6293700;22;19922;-83
2022/08/04 14:31:07;;;;;;;;;;;;;;;;;;6266814;22;19910;-83
2022/08/04 14:33:33;;;;;;;;;;;;;;;;;;6245006;22;19918;-84
2022/08/04 14:35:59;;;;;;;;;;;;;;;;;;6263966;22;19918;-85
2022/08/04 14:38:25;;;;;;;;;;;;;;;;;;6268142;22;19961;-85
2022/08/04 14:40:51;;;;;;;;;;;;;;;;;;6268108;22;19915;-85
2022/08/04 14:43:18;;;;;;;;;;;;;;;;;;6238537;22;20221;-85
2022/08/04 14:45:53;;;;;;;;;;;;;;;;;;6210442;22;19965;-85
2022/08/04 14:48:20;;;;;;;;;;;;;;;;;;6209697;22;19947;-86
2022/08/04 14:50:46;;;;;;;;;;;;;;;;;;6211783;22;19922;-86
2022/08/04 14:53:12;;;;;;;;;;;;;;;;;;6236520;22;19982;-85
2022/08/04 14:55:38;;;;;;;;;;;;;;;;;;6238771;22;19922;-86
2022/08/04 14:58:04;;;;;;;;;;;;;;;;;;6226152;22;20527;-85
2022/08/04 15:00:30;;;;;;;;;;;;;;;;;;6203020;22;19918;-85
2022/08/04 15:02:59;;;;;;;;;;;;;;;;;;6231632;22;19915;-85
2022/08/04 15:05:25;;;;;;;;;;;;;;;;;;6206325;22;19922;-85
2022/08/04 15:07:51;;;;;;;;;;;;;;;;;;6228803;22;19915;-85
2022/08/04 15:10:17;;;;;;;;;;;;;;;;;;6228964;22;20779;-85
2022/08/04 15:12:43;;;;;;;;;;;;;;;;;;6233841;22;19915;-85
2022/08/04 15:15:09;;;;;;;;;;;;;;;;;;6204788;22;19919;-84
2022/08/04 15:17:35;;;;;;;;;;;;;;;;;;6208435;22;20387;-86
2022/08/04 15:20:01;;;;;;;;;;;;;;;;;;6229298;22;20202;-85
2022/08/04 15:22:30;;;;;;;;;;;;;;;;;;6230994;22;19953;-84
2022/08/04 15:24:59;;;;;;;;;;;;;;;;;;6234087;22;19915;-84
2022/08/04 15:27:25;;;;;;;;;;;;;;;;;;6232356;22;19966;-85
2022/08/04 15:29:51;;;;;;;;;;;;;;;;;;6230608;22;19961;-84
2022/08/04 15:32:19;;;;;;;;;;;;;;;;;;6230518;22;19919;-84
2022/08/04 15:34:45;;;;;;;;;;;;;;;;;;6206212;22;19912;-84
2022/08/04 15:37:11;;;;;;;;;;;;;;;;;;6227108;22;19915;-84
2022/08/04 15:39:37;;;;;;;;;;;;;;;;;;6260218;22;19973;-84
2022/08/04 15:42:03;;;;;;;;;;;;;;;;;;6229286;22;20264;-84
2022/08/04 15:44:29;;;;;;;;;;;;;;;;;;6259901;22;19989;-85
2022/08/04 15:46:55;;;;;;;;;;;;;;;;;;6261494;22;19911;-84
2022/08/04 15:49:22;;;;;;;;;;;;;;;;;;6233200;22;19934;-84
2022/08/04 15:51:48;;;;;;;;;;;;;;;;;;6264714;22;19915;-85
2022/08/04 15:54:14;;;;;;;;;;;;;;;;;;6262791;22;19973;-86
2022/08/04 15:56:41;;;;;;;;;;;;;;;;;;6264037;22;19922;-86
2022/08/04 15:59:08;;;;;;;;;;;;;;;;;;6257967;22;19923;-85
2022/08/04 16:01:37;;;;;;;;;;;;;;;;;;6259302;22;19950;-85
2022/08/04 16:04:03;;;;;;;;;;;;;;;;;;6231771;22;19984;-85
2022/08/04 16:06:29;;;;;;;;;;;;;;;;;;6233959;22;19923;-85
2022/08/04 16:08:58;;;;;;;;;;;;;;;;;;6234679;22;19951;-85
2022/08/04 16:11:29;;;;;;;;;;;;;;;;;;6233211;22;19915;-84
2022/08/04 16:13:55;;;;;;;;;;;;;;;;;;6258885;22;19985;-84
2022/08/04 16:16:21;;;;;;;;;;;;;;;;;;6251959;22;20362;-85
2022/08/04 16:18:46;;;;;;;;;;;;;;;;;;6230306;22;19919;-85
2022/08/04 16:21:12;;;;;;;;;;;;;;;;;;6227173;22;19915;-85
2022/08/04 16:23:38;;;;;;;;;;;;;;;;;;6258274;22;19914;-85
2022/08/04 16:26:04;;;;;;;;;;;;;;;;;;6252140;22;19938;-84
2022/08/04 16:28:30;;;;;;;;;;;;;;;;;;6257909;22;19922;-85
2022/08/04 16:30:56;;;;;;;;;;;;;;;;;;6256150;22;19965;-84
2022/08/04 16:33:22;;;;;;;;;;;;;;;;;;6228400;22;19915;-85
2022/08/04 16:35:48;;;;;;;;;;;;;;;;;;6230146;22;19911;-84
2022/08/04 16:38:14;;;;;;;;;;;;;;;;;;6228718;22;19943;-84
2022/08/04 16:40:43;;;;;;;;;;;;;;;;;;6230144;22;19915;-84
2022/08/04 16:43:10;;;;;;;;;;;;;;;;;;6231556;22;19953;-86
2022/08/04 16:45:37;;;;;;;;;;;;;;;;;;6208048;22;19919;-85